createdAt,value
2019-04-22T00:00:37.216Z,23.70
2019-04-22T00:03:09.199Z,23.70
2019-04-22T00:05:55.182Z,23.70
2019-04-22T00:08:30.951Z,23.70
2019-04-22T00:11:03.132Z,23.70
2019-04-22T00:13:33.775Z,23.70
2019-04-22T00:15:56.659Z,23.70
2019-04-22T00:18:42.885Z,23.70
2019-04-22T00:21:09.315Z,23.70
2019-04-22T00:23:37.012Z,23.70
2019-04-22T00:26:05.248Z,23.70
2019-04-22T00:28:41.532Z,23.70
2019-04-22T00:31:06.701Z,23.70
2019-04-22T00:33:34.301Z,23.70
2019-04-22T00:36:06.272Z,23.70
2019-04-22T00:38:54.277Z,23.70
2019-04-22T00:41:05.815Z,23.70
2019-04-22T00:43:36.003Z,23.70
2019-04-22T00:46:01.137Z,23.70
2019-04-22T00:48:38.279Z,23.70
2019-04-22T00:51:06.352Z,23.70
2019-04-22T00:53:35.293Z,23.70
2019-04-22T00:56:05.651Z,23.70
2019-04-22T00:58:37.924Z,23.70
2019-04-22T01:01:12.160Z,23.70
2019-04-22T01:03:44.156Z,23.70
2019-04-22T01:06:06.174Z,23.70
2019-04-22T01:08:45.221Z,23.60
2019-04-22T01:11:14.968Z,23.70
2019-04-22T01:13:30.425Z,23.70
2019-04-22T01:16:06.802Z,23.70
2019-04-22T01:18:38.029Z,23.70
2019-04-22T01:21:27.539Z,23.60
2019-04-22T01:23:31.146Z,23.60
2019-04-22T01:25:57.073Z,23.70
2019-04-22T01:28:24.005Z,23.70
2019-04-22T01:30:50.989Z,23.70
2019-04-22T01:33:21.059Z,23.70
2019-04-22T01:36:03.988Z,23.70
2019-04-22T01:38:34.309Z,23.70
2019-04-22T01:41:12.765Z,23.70
2019-04-22T01:43:50.004Z,23.70
2019-04-22T01:46:08.530Z,23.70
2019-04-22T01:48:40.580Z,23.60
2019-04-22T01:51:01.396Z,23.60
2019-04-22T01:53:43.036Z,23.70
2019-04-22T01:56:05.466Z,23.70
2019-04-22T01:58:28.911Z,23.70
2019-04-22T02:01:09.531Z,23.70
2019-04-22T02:03:40.066Z,23.70
2019-04-22T02:06:07.514Z,23.70
2019-04-22T02:11:08.085Z,23.70
2019-04-22T02:13:36.625Z,23.70
2019-04-22T02:16:05.703Z,23.70
2019-04-22T02:18:42.702Z,23.60
2019-04-22T02:21:12.104Z,23.60
2019-04-22T02:26:12.672Z,23.60
2019-04-22T02:28:47.540Z,23.60
2019-04-22T02:34:01.687Z,23.70
2019-04-22T02:43:55.417Z,23.70
2019-04-22T02:48:54.799Z,23.70
2019-04-22T02:51:17.049Z,23.70
2019-04-22T02:56:25.842Z,23.70
2019-04-22T02:58:56.569Z,23.60
2019-04-22T03:06:32.915Z,23.60
2019-04-22T03:16:17.835Z,23.70
2019-04-22T03:21:14.170Z,23.70
2019-04-22T03:26:18.780Z,23.70
2019-04-22T03:34:39.354Z,23.60
2019-04-22T03:39:28.035Z,23.60
2019-04-22T03:41:48.214Z,23.60
2019-04-22T03:44:24.957Z,23.60
2019-04-22T03:46:30.379Z,23.60
2019-04-22T03:49:14.807Z,23.60
2019-04-22T03:51:38.420Z,23.70
2019-04-22T03:54:21.276Z,23.60
2019-04-22T03:59:07.272Z,23.70
2019-04-22T04:01:36.548Z,23.70
2019-04-22T04:04:12.946Z,23.70
2019-04-22T04:06:43.388Z,23.60
2019-04-22T04:09:03.457Z,23.60
2019-04-22T04:11:38.548Z,23.60
2019-04-22T04:14:09.992Z,23.60
2019-04-22T04:16:30.396Z,23.60
2019-04-22T04:19:09.849Z,23.60
2019-04-22T04:24:11.264Z,23.60
2019-04-22T04:29:22.600Z,23.60
2019-04-22T04:31:32.781Z,23.70
2019-04-22T04:34:04.144Z,23.70
2019-04-22T04:39:00.954Z,23.70
2019-04-22T04:41:33.774Z,23.70
2019-04-22T04:44:11.192Z,23.70
2019-04-22T04:51:32.932Z,23.60
2019-04-22T04:54:08.727Z,23.60
2019-04-22T05:04:04.553Z,23.70
2019-04-22T05:06:49.095Z,23.70
2019-04-22T05:09:11.633Z,23.60
2019-04-22T05:11:45.242Z,23.70
2019-04-22T05:16:32.639Z,23.70
2019-04-22T05:19:00.651Z,23.70
2019-04-22T05:21:21.646Z,23.60
2019-04-22T05:24:07.974Z,23.60
2019-04-22T05:26:27.959Z,23.60
2019-04-22T05:28:57.609Z,23.60
2019-04-22T05:31:32.624Z,23.60
2019-04-22T05:34:01.240Z,23.60
2019-04-22T05:36:30.050Z,23.70
2019-04-22T05:41:27.217Z,23.70
2019-04-22T05:43:58.146Z,23.70
2019-04-22T05:46:22.494Z,23.70
2019-04-22T05:49:03.167Z,23.70
2019-04-22T05:51:31.489Z,23.70
2019-04-22T05:53:58.982Z,23.70
2019-04-22T05:56:34.211Z,23.70
2019-04-22T05:58:58.261Z,23.70
2019-04-22T06:04:03.907Z,23.70
2019-04-22T06:06:22.591Z,23.70
2019-04-22T06:08:57.602Z,23.70
2019-04-22T06:11:29.417Z,23.70
2019-04-22T06:13:58.748Z,23.80
2019-04-22T06:16:30.854Z,23.80
2019-04-22T06:19:03.243Z,23.80
2019-04-22T06:21:35.809Z,23.80
2019-04-22T06:24:08.243Z,23.80
2019-04-22T06:26:39.420Z,23.80
2019-04-22T06:29:07.360Z,23.80
2019-04-22T06:31:37.383Z,23.80
2019-04-22T06:34:02.048Z,23.80
2019-04-22T06:38:59.039Z,23.80
2019-04-22T06:44:04.606Z,23.80
2019-04-22T06:46:35.134Z,23.80
2019-04-22T06:49:03.051Z,23.80
2019-04-22T06:51:32.689Z,23.90
2019-04-22T06:54:01.828Z,23.90
2019-04-22T06:56:27.763Z,23.90
2019-04-22T06:58:58.001Z,23.90
2019-04-22T07:03:58.496Z,23.90
2019-04-22T07:06:43.717Z,23.90
2019-04-22T07:11:33.387Z,23.90
2019-04-22T07:14:05.605Z,23.90
2019-04-22T07:19:05.638Z,23.90
2019-04-22T07:21:30.378Z,23.90
2019-04-22T07:24:21.220Z,23.90
2019-04-22T07:26:33.553Z,23.90
2019-04-22T07:29:06.196Z,23.80
2019-04-22T07:31:34.410Z,23.90
2019-04-22T07:34:13.622Z,23.80
2019-04-22T07:39:04.209Z,23.80
2019-04-22T07:46:39.167Z,23.80
2019-04-22T07:49:06.892Z,23.80
2019-04-22T07:51:33.303Z,23.80
2019-04-22T07:54:01.460Z,23.90
2019-04-22T07:56:50.788Z,23.90
2019-04-22T07:59:03.485Z,23.90
2019-04-22T08:01:30.614Z,23.80
2019-04-22T08:06:43.790Z,23.80
2019-04-22T08:09:07.880Z,23.80
2019-04-22T08:11:43.791Z,23.90
2019-04-22T08:14:07.204Z,23.80
2019-04-22T08:16:36.878Z,23.80
2019-04-22T08:19:12.317Z,23.80
2019-04-22T08:21:29.870Z,23.80
2019-04-22T08:24:01.454Z,23.80
2019-04-22T08:26:32.202Z,23.80
2019-04-22T08:29:08.129Z,23.80
2019-04-22T08:31:38.570Z,23.80
2019-04-22T08:34:06.383Z,23.80
2019-04-22T08:36:31.563Z,23.80
2019-04-22T08:39:10.964Z,23.80
2019-04-22T08:41:43.575Z,23.80
2019-04-22T08:44:17.003Z,23.80
2019-04-22T08:46:50.391Z,23.80
2019-04-22T08:49:05.463Z,23.80
2019-04-22T08:51:31.084Z,23.80
2019-04-22T08:56:45.866Z,23.80
2019-04-22T08:59:11.041Z,23.80
2019-04-22T09:01:33.937Z,23.80
2019-04-22T09:04:06.963Z,23.80
2019-04-22T09:06:49.423Z,23.80
2019-04-22T09:09:06.221Z,23.90
2019-04-22T09:11:38.774Z,23.90
2019-04-22T09:14:14.025Z,23.80
2019-04-22T09:16:37.679Z,23.80
2019-04-22T09:19:10.836Z,23.90
2019-04-22T09:21:38.981Z,23.80
2019-04-22T09:26:38.802Z,23.90
2019-04-22T09:29:06.507Z,23.80
2019-04-22T09:31:35.986Z,23.90
2019-04-22T09:34:06.487Z,23.90
2019-04-22T09:36:42.074Z,23.90
2019-04-22T09:39:10.614Z,23.80
2019-04-22T09:41:41.245Z,23.90
2019-04-22T09:44:05.994Z,23.80
2019-04-22T09:49:12.000Z,23.90
2019-04-22T09:51:38.932Z,23.90
2019-04-22T09:56:38.748Z,23.80
2019-04-22T09:59:05.500Z,23.90
2019-04-22T10:01:38.398Z,23.90
2019-04-22T10:04:07.221Z,23.90
2019-04-22T10:06:45.539Z,23.90
2019-04-22T10:11:37.631Z,23.80
2019-04-22T10:14:06.098Z,23.80
2019-04-22T10:21:46.574Z,23.80
2019-04-22T10:24:09.098Z,23.80
2019-04-22T10:26:39.137Z,23.80
2019-04-22T10:29:14.091Z,23.80
2019-04-22T10:31:46.599Z,23.80
2019-04-22T10:33:58.484Z,23.90
2019-04-22T10:36:13.290Z,23.90
2019-04-22T10:38:42.233Z,23.90
2019-04-22T10:41:10.610Z,23.90
2019-04-22T10:43:39.204Z,23.90
2019-04-22T10:46:08.311Z,23.90
2019-04-22T10:48:36.895Z,23.90
2019-04-22T10:51:06.452Z,23.90
2019-04-22T10:53:35.576Z,23.90
2019-04-22T10:56:05.218Z,24.00
2019-04-22T10:58:34.850Z,24.00
2019-04-22T11:01:03.482Z,23.90
2019-04-22T11:03:33.238Z,23.90
2019-04-22T11:06:03.294Z,24.00
2019-04-22T11:08:40.637Z,24.00
2019-04-22T11:11:16.079Z,24.00
2019-04-22T11:13:33.780Z,24.00
2019-04-22T11:16:03.313Z,24.00
2019-04-22T11:18:31.850Z,24.00
2019-04-22T11:21:00.118Z,24.00
2019-04-22T11:23:29.226Z,24.00
2019-04-22T11:25:57.747Z,24.00
2019-04-22T11:28:27.596Z,24.00
2019-04-22T11:30:56.428Z,24.00
2019-04-22T11:33:24.790Z,24.00
2019-04-22T11:35:53.147Z,24.10
2019-04-22T11:38:22.540Z,24.00
2019-04-22T11:40:53.970Z,24.00
2019-04-22T11:43:21.925Z,24.10
2019-04-22T11:45:51.212Z,24.00
2019-04-22T11:48:19.843Z,24.10
2019-04-22T11:50:48.209Z,24.10
2019-04-22T11:53:16.749Z,24.10
2019-04-22T11:55:46.618Z,24.10
2019-04-22T11:58:16.933Z,24.10
2019-04-22T12:00:45.621Z,24.10
2019-04-22T12:03:14.768Z,24.10
2019-04-22T12:05:43.947Z,24.10
2019-04-22T12:08:13.205Z,24.10
2019-04-22T12:10:49.194Z,24.10
2019-04-22T12:13:12.262Z,24.10
2019-04-22T12:15:40.905Z,24.10
2019-04-22T12:18:11.084Z,24.10
2019-04-22T12:20:41.293Z,24.20
2019-04-22T12:23:11.152Z,24.20
2019-04-22T12:25:49.762Z,24.10
2019-04-22T12:28:11.005Z,24.20
2019-04-22T12:30:39.586Z,24.20
2019-04-22T12:33:11.032Z,24.20
2019-04-22T12:35:38.791Z,24.20
2019-04-22T12:38:10.264Z,24.20
2019-04-22T12:40:43.361Z,24.20
2019-04-22T12:43:08.678Z,24.20
2019-04-22T12:45:38.496Z,24.20
2019-04-22T12:48:08.505Z,24.20
2019-04-22T12:50:40.698Z,24.20
2019-04-22T12:53:10.838Z,24.20
2019-04-22T12:55:37.563Z,24.20
2019-04-22T12:58:07.508Z,24.20
2019-04-22T13:00:36.387Z,24.30
2019-04-22T13:03:05.233Z,24.30
2019-04-22T13:05:33.591Z,24.20
2019-04-22T13:08:02.040Z,24.20
2019-04-22T13:10:41.667Z,24.20
2019-04-22T13:13:00.889Z,24.30
2019-04-22T13:15:30.720Z,24.30
2019-04-22T13:18:06.117Z,24.30
2019-04-22T13:20:30.450Z,24.30
2019-04-22T13:22:58.958Z,24.30
2019-04-22T13:25:30.033Z,24.30
2019-04-22T13:27:57.614Z,24.30
2019-04-22T13:30:26.280Z,24.30
2019-04-22T13:32:54.687Z,24.20
2019-04-22T13:35:24.678Z,24.30
2019-04-22T13:37:54.873Z,24.30
2019-04-22T13:40:25.165Z,24.30
2019-04-22T13:42:53.677Z,24.30
2019-04-22T13:45:23.442Z,24.30
2019-04-22T13:48:11.184Z,24.30
2019-04-22T13:50:59.511Z,24.30
2019-04-22T13:58:05.858Z,24.20
2019-04-22T14:00:26.912Z,24.20
2019-04-22T14:03:10.682Z,24.20
2019-04-22T14:05:44.665Z,24.20
2019-04-22T14:08:14.577Z,24.20
2019-04-22T14:10:44.613Z,24.20
2019-04-22T14:13:14.060Z,24.20
2019-04-22T14:15:43.910Z,24.20
2019-04-22T14:18:12.838Z,24.20
2019-04-22T14:20:42.492Z,24.20
2019-04-22T14:23:12.259Z,24.20
2019-04-22T14:25:41.172Z,24.20
2019-04-22T14:28:13.671Z,24.20
2019-04-22T14:30:39.514Z,24.20
2019-04-22T14:33:07.794Z,24.20
2019-04-22T14:35:37.973Z,24.20
2019-04-22T14:38:06.460Z,24.20
2019-04-22T14:40:36.532Z,24.20
2019-04-22T14:43:25.206Z,24.20
2019-04-22T14:48:36.063Z,24.20
2019-04-22T14:50:56.045Z,24.30
2019-04-22T14:53:29.373Z,24.30
2019-04-22T14:55:38.187Z,24.30
2019-04-22T14:58:06.856Z,24.30
2019-04-22T15:00:35.864Z,24.30
2019-04-22T15:03:05.754Z,24.30
2019-04-22T15:05:34.415Z,24.30
2019-04-22T15:08:03.318Z,24.30
2019-04-22T15:10:31.902Z,24.30
2019-04-22T15:13:00.768Z,24.40
2019-04-22T15:15:47.266Z,24.50
2019-04-22T15:18:17.660Z,24.50
2019-04-22T15:20:56.885Z,24.60
2019-04-22T15:23:26.522Z,24.60
2019-04-22T15:25:55.087Z,24.50
2019-04-22T15:28:23.742Z,24.50
2019-04-22T15:30:53.208Z,24.60
2019-04-22T15:33:21.622Z,24.60
2019-04-22T15:35:51.211Z,24.60
2019-04-22T15:38:22.802Z,24.60
2019-04-22T15:40:49.770Z,24.60
2019-04-22T15:43:18.038Z,24.60
2019-04-22T15:45:48.469Z,24.60
2019-04-22T15:48:16.965Z,24.60
2019-04-22T15:50:46.583Z,24.60
2019-04-22T15:53:15.865Z,24.60
2019-04-22T15:55:44.907Z,24.60
2019-04-22T15:58:15.291Z,24.60
2019-04-22T16:00:54.071Z,24.60
2019-04-22T16:03:14.530Z,24.60
2019-04-22T16:05:44.115Z,24.60
2019-04-22T16:08:13.140Z,24.60
2019-04-22T16:10:42.109Z,24.60
2019-04-22T16:13:17.311Z,24.60
2019-04-22T16:15:40.484Z,24.60
2019-04-22T16:18:11.366Z,24.60
2019-04-22T16:20:40.539Z,24.60
2019-04-22T16:23:10.510Z,24.60
2019-04-22T16:25:43.363Z,24.60
2019-04-22T16:28:13.009Z,24.60
2019-04-22T16:30:43.509Z,24.60
2019-04-22T16:33:13.177Z,24.60
2019-04-22T16:35:42.666Z,24.60
2019-04-22T16:38:11.071Z,24.60
2019-04-22T16:40:40.771Z,24.60
2019-04-22T16:43:10.147Z,24.60
2019-04-22T16:45:40.059Z,24.60
2019-04-22T16:48:09.390Z,24.60
2019-04-22T16:50:41.205Z,24.50
2019-04-22T16:53:08.314Z,24.50
2019-04-22T16:55:36.936Z,24.50
2019-04-22T16:58:05.434Z,24.50
2019-04-22T17:00:34.370Z,24.50
2019-04-22T17:03:22.646Z,24.50
2019-04-22T17:06:09.848Z,24.40
2019-04-22T17:08:39.004Z,24.50
2019-04-22T17:11:09.550Z,24.40
2019-04-22T17:13:39.629Z,24.50
2019-04-22T17:16:09.686Z,24.40
2019-04-22T17:18:39.385Z,24.40
2019-04-22T17:21:09.211Z,24.40
2019-04-22T17:23:38.037Z,24.40
2019-04-22T17:26:06.510Z,24.40
2019-04-22T17:28:35.489Z,24.40
2019-04-22T17:31:04.840Z,24.50
2019-04-22T17:33:34.864Z,24.40
2019-04-22T17:36:03.527Z,24.50
2019-04-22T17:38:44.264Z,24.40
2019-04-22T17:41:19.049Z,24.40
2019-04-22T17:46:24.775Z,24.50
2019-04-22T17:49:04.459Z,24.40
2019-04-22T17:51:36.663Z,24.40
2019-04-22T17:54:06.997Z,24.40
2019-04-22T17:56:40.627Z,24.40
2019-04-22T17:59:13.927Z,24.50
2019-04-22T18:01:35.670Z,24.40
2019-04-22T18:03:52.933Z,24.50
2019-04-22T18:06:46.961Z,24.40
2019-04-22T18:09:04.973Z,24.40
2019-04-22T18:11:46.015Z,24.40
2019-04-22T18:14:26.013Z,24.40
2019-04-22T18:16:37.136Z,24.40
2019-04-22T18:19:11.556Z,24.40
2019-04-22T18:21:38.041Z,24.40
2019-04-22T18:23:55.435Z,24.40
2019-04-22T18:26:38.958Z,24.40
2019-04-22T18:29:07.117Z,24.40
2019-04-22T18:31:32.973Z,24.30
2019-04-22T18:34:04.363Z,24.30
2019-04-22T18:36:33.337Z,24.30
2019-04-22T18:39:10.072Z,24.40
2019-04-22T18:41:41.206Z,24.40
2019-04-22T18:44:10.005Z,24.40
2019-04-22T18:46:36.605Z,24.50
2019-04-22T18:49:07.299Z,24.50
2019-04-22T18:51:42.449Z,24.50
2019-04-22T18:54:31.001Z,24.50
2019-04-22T18:57:07.734Z,24.60
2019-04-22T18:59:25.842Z,24.60
2019-04-22T19:01:48.124Z,24.60
2019-04-22T19:04:27.040Z,24.60
2019-04-22T19:07:07.383Z,24.60
2019-04-22T19:09:55.288Z,24.60
2019-04-22T19:12:23.020Z,24.60
2019-04-22T19:14:45.532Z,24.60
2019-04-22T19:17:17.006Z,24.60
2019-04-22T19:19:49.808Z,24.60
2019-04-22T19:22:07.952Z,24.50
2019-04-22T19:24:34.091Z,24.50
2019-04-22T19:27:09.078Z,24.50
2019-04-22T19:29:45.158Z,24.50
2019-04-22T19:32:06.950Z,24.50
2019-04-22T19:34:36.871Z,24.50
2019-04-22T19:37:07.141Z,24.50
2019-04-22T19:39:41.149Z,24.50
2019-04-22T19:42:21.909Z,24.50
2019-04-22T19:44:43.815Z,24.50
2019-04-22T19:49:48.041Z,24.50
2019-04-22T19:52:18.919Z,24.50
2019-04-22T19:54:43.946Z,24.50
2019-04-22T19:57:08.595Z,24.50
2019-04-22T19:59:37.100Z,24.50
2019-04-22T20:02:28.617Z,24.50
2019-04-22T20:05:26.139Z,24.50
2019-04-22T20:07:41.617Z,24.50
2019-04-22T20:10:20.646Z,24.40
2019-04-22T20:12:48.582Z,24.50
2019-04-22T20:15:14.189Z,24.50
2019-04-22T20:18:11.202Z,24.40
2019-04-22T20:20:23.021Z,24.40
2019-04-22T20:22:44.517Z,24.40
2019-04-22T20:25:07.632Z,24.40
2019-04-22T20:27:47.580Z,24.50
2019-04-22T20:30:24.754Z,24.40
2019-04-22T20:32:44.594Z,24.50
2019-04-22T20:35:21.712Z,24.50
2019-04-22T20:37:54.800Z,24.50
2019-04-22T20:40:25.647Z,24.40
2019-04-22T20:42:54.410Z,24.50
2019-04-22T20:45:26.995Z,24.50
2019-04-22T20:47:46.545Z,24.40
2019-04-22T20:50:26.498Z,24.40
2019-04-22T20:52:59.138Z,24.40
2019-04-22T20:55:17.014Z,24.40
2019-04-22T20:57:53.563Z,24.40
2019-04-22T21:00:20.145Z,24.40
2019-04-22T21:02:45.488Z,24.30
2019-04-22T21:05:17.869Z,24.30
2019-04-22T21:07:57.726Z,24.40
2019-04-22T21:10:18.328Z,24.30
2019-04-22T21:12:41.807Z,24.30
2019-04-22T21:15:26.396Z,24.30
2019-04-22T21:17:54.347Z,24.30
2019-04-22T21:20:26.964Z,24.30
2019-04-22T21:22:58.225Z,24.30
2019-04-22T21:25:19.604Z,24.30
2019-04-22T21:27:56.840Z,24.30
2019-04-22T21:30:24.568Z,24.30
2019-04-22T21:32:49.038Z,24.30
2019-04-22T21:35:43.678Z,24.30
2019-04-22T21:37:57.851Z,24.30
2019-04-22T21:40:27.484Z,24.20
2019-04-22T21:42:59.578Z,24.20
2019-04-22T21:45:22.808Z,24.30
2019-04-22T21:48:05.215Z,24.20
2019-04-22T21:50:48.014Z,24.20
2019-04-22T21:53:00.810Z,24.20
2019-04-22T21:55:29.726Z,24.20
2019-04-22T21:58:16.117Z,24.20
2019-04-22T22:00:54.172Z,24.20
2019-04-22T22:03:17.707Z,24.20
2019-04-22T22:05:34.286Z,24.20
2019-04-22T22:08:11.425Z,24.20
2019-04-22T22:10:45.305Z,24.20
2019-04-22T22:13:10.921Z,24.20
2019-04-22T22:15:43.484Z,24.20
2019-04-22T22:18:10.118Z,24.20
2019-04-22T22:20:50.922Z,24.20
2019-04-22T22:23:22.440Z,24.20
2019-04-22T22:25:41.846Z,24.20
2019-04-22T22:28:21.929Z,24.20
2019-04-22T22:31:01.979Z,24.20
2019-04-22T22:33:10.995Z,24.20
2019-04-22T22:35:42.400Z,24.20
2019-04-22T22:38:14.935Z,24.20
2019-04-22T22:40:26.357Z,24.20
2019-04-22T22:42:53.619Z,24.20
2019-04-22T22:45:32.611Z,24.20
2019-04-22T22:48:16.653Z,24.20
2019-04-22T22:50:46.432Z,24.20
2019-04-22T22:53:25.609Z,24.20
2019-04-22T22:55:39.794Z,24.10
2019-04-22T22:58:19.143Z,24.20
2019-04-22T23:00:39.682Z,24.20
2019-04-22T23:05:50.619Z,24.20
2019-04-22T23:08:20.033Z,24.20
2019-04-22T23:10:54.247Z,24.20
2019-04-22T23:13:21.555Z,24.20
2019-04-22T23:15:39.492Z,24.20
2019-04-22T23:17:54.190Z,24.20
2019-04-22T23:20:27.711Z,24.20
2019-04-22T23:23:17.357Z,24.20
2019-04-22T23:25:54.985Z,24.20
2019-04-22T23:28:16.059Z,24.20
2019-04-22T23:31:08.004Z,24.20
2019-04-22T23:33:42.514Z,24.20
2019-04-22T23:36:12.322Z,24.10
2019-04-22T23:38:53.696Z,24.10
2019-04-22T23:44:11.357Z,24.20
2019-04-22T23:46:38.269Z,24.10
2019-04-22T23:49:06.023Z,24.10
2019-04-22T23:51:39.634Z,24.10
2019-04-22T23:54:19.408Z,24.10
2019-04-22T23:56:34.366Z,24.10
2019-04-22T23:59:14.925Z,24.10
